sensor_id;sensor_type;location;lat;lon;timestamp;temperature;humidity
35299;DHT22;21415;48.054;16.646;2022-10-17T00:01:48;19.70;57.60
35299;DHT22;21415;48.054;16.646;2022-10-17T00:04:14;19.70;57.70
35299;DHT22;21415;48.054;16.646;2022-10-17T00:06:40;19.70;57.70
35299;DHT22;21415;48.054;16.646;2022-10-17T00:09:06;19.70;57.80
35299;DHT22;21415;48.054;16.646;2022-10-17T00:11:32;19.70;57.90
35299;DHT22;21415;48.054;16.646;2022-10-17T00:13:58;19.60;57.90
35299;DHT22;21415;48.054;16.646;2022-10-17T00:16:29;19.60;58.00
35299;DHT22;21415;48.054;16.646;2022-10-17T00:18:57;19.60;58.20
35299;DHT22;21415;48.054;16.646;2022-10-17T00:21:23;19.50;58.10
35299;DHT22;21415;48.054;16.646;2022-10-17T00:23:49;19.50;58.70
35299;DHT22;21415;48.054;16.646;2022-10-17T00:26:16;19.50;58.20
35299;DHT22;21415;48.054;16.646;2022-10-17T00:28:44;19.50;58.30
35299;DHT22;21415;48.054;16.646;2022-10-17T00:31:10;19.50;58.30
35299;DHT22;21415;48.054;16.646;2022-10-17T00:33:36;19.50;58.30
35299;DHT22;21415;48.054;16.646;2022-10-17T00:36:08;19.50;58.30
35299;DHT22;21415;48.054;16.646;2022-10-17T00:38:35;19.50;58.40
35299;DHT22;21415;48.054;16.646;2022-10-17T00:41:02;19.40;58.40
35299;DHT22;21415;48.054;16.646;2022-10-17T00:43:28;19.40;58.50
35299;DHT22;21415;48.054;16.646;2022-10-17T00:45:55;19.40;58.40
35299;DHT22;21415;48.054;16.646;2022-10-17T00:48:23;19.40;58.50
35299;DHT22;21415;48.054;16.646;2022-10-17T00:50:50;19.40;58.70
35299;DHT22;21415;48.054;16.646;2022-10-17T00:53:16;19.40;58.60
35299;DHT22;21415;48.054;16.646;2022-10-17T00:55:49;19.30;58.60
35299;DHT22;21415;48.054;16.646;2022-10-17T00:58:16;19.30;58.90
35299;DHT22;21415;48.054;16.646;2022-10-17T01:00:43;19.30;58.70
35299;DHT22;21415;48.054;16.646;2022-10-17T01:03:10;19.30;58.70
35299;DHT22;21415;48.054;16.646;2022-10-17T01:05:37;19.30;58.70
35299;DHT22;21415;48.054;16.646;2022-10-17T01:08:03;19.30;58.80
35299;DHT22;21415;48.054;16.646;2022-10-17T01:11:36;19.30;58.80
35299;DHT22;21415;48.054;16.646;2022-10-17T01:13:44;19.20;58.90
35299;DHT22;21415;48.054;16.646;2022-10-17T01:18:50;19.20;59.00
35299;DHT22;21415;48.054;16.646;2022-10-17T01:27:23;19.10;59.20
35299;DHT22;21415;48.054;16.646;2022-10-17T01:32:56;19.10;59.60
35299;DHT22;21415;48.054;16.646;2022-10-17T01:35:25;19.10;59.30
35299;DHT22;21415;48.054;16.646;2022-10-17T01:38:00;19.00;59.60
35299;DHT22;21415;48.054;16.646;2022-10-17T01:40:34;19.00;59.20
35299;DHT22;21415;48.054;16.646;2022-10-17T01:43:06;19.00;59.20
35299;DHT22;21415;48.054;16.646;2022-10-17T01:45:52;19.00;59.30
35299;DHT22;21415;48.054;16.646;2022-10-17T01:48:24;19.00;59.60
35299;DHT22;21415;48.054;16.646;2022-10-17T01:51:02;19.00;59.50
35299;DHT22;21415;48.054;16.646;2022-10-17T01:53:33;18.90;59.70
35299;DHT22;21415;48.054;16.646;2022-10-17T01:56:02;19.00;59.40
35299;DHT22;21415;48.054;16.646;2022-10-17T01:58:33;18.90;60.00
35299;DHT22;21415;48.054;16.646;2022-10-17T02:01:04;18.90;59.60
35299;DHT22;21415;48.054;16.646;2022-10-17T02:03:32;18.90;59.60
35299;DHT22;21415;48.054;16.646;2022-10-17T02:05:59;18.90;59.40
35299;DHT22;21415;48.054;16.646;2022-10-17T02:08:28;18.90;59.40
35299;DHT22;21415;48.054;16.646;2022-10-17T02:11:13;18.90;59.40
35299;DHT22;21415;48.054;16.646;2022-10-17T02:14:02;18.90;59.60
35299;DHT22;21415;48.054;16.646;2022-10-17T02:22:24;18.80;59.80
35299;DHT22;21415;48.054;16.646;2022-10-17T02:25:16;18.80;59.60
35299;DHT22;21415;48.054;16.646;2022-10-17T02:27:50;18.80;59.70
35299;DHT22;21415;48.054;16.646;2022-10-17T02:33:54;18.70;59.60
35299;DHT22;21415;48.054;16.646;2022-10-17T02:36:22;18.70;59.60
35299;DHT22;21415;48.054;16.646;2022-10-17T02:38:51;18.70;59.30
35299;DHT22;21415;48.054;16.646;2022-10-17T02:41:20;18.60;59.20
35299;DHT22;21415;48.054;16.646;2022-10-17T02:43:48;18.60;59.30
35299;DHT22;21415;48.054;16.646;2022-10-17T02:46:18;18.60;59.30
35299;DHT22;21415;48.054;16.646;2022-10-17T02:49:12;18.60;59.40
35299;DHT22;21415;48.054;16.646;2022-10-17T02:51:48;18.60;59.80
35299;DHT22;21415;48.054;16.646;2022-10-17T02:56:54;18.60;59.70
35299;DHT22;21415;48.054;16.646;2022-10-17T02:59:24;18.50;59.60
35299;DHT22;21415;48.054;16.646;2022-10-17T03:01:51;18.50;59.50
35299;DHT22;21415;48.054;16.646;2022-10-17T03:04:17;18.50;59.50
35299;DHT22;21415;48.054;16.646;2022-10-17T03:06:44;18.50;59.50
35299;DHT22;21415;48.054;16.646;2022-10-17T03:09:10;18.50;59.50
35299;DHT22;21415;48.054;16.646;2022-10-17T03:11:36;18.50;59.40
35299;DHT22;21415;48.054;16.646;2022-10-17T03:14:02;18.50;59.40
35299;DHT22;21415;48.054;16.646;2022-10-17T03:16:28;18.50;59.30
35299;DHT22;21415;48.054;16.646;2022-10-17T03:18:54;18.50;59.30
35299;DHT22;21415;48.054;16.646;2022-10-17T03:21:21;18.50;59.30
35299;DHT22;21415;48.054;16.646;2022-10-17T03:23:47;18.50;59.30
35299;DHT22;21415;48.054;16.646;2022-10-17T03:26:14;18.50;59.30
35299;DHT22;21415;48.054;16.646;2022-10-17T03:28:40;18.50;59.30
35299;DHT22;21415;48.054;16.646;2022-10-17T03:31:12;18.50;59.30
35299;DHT22;21415;48.054;16.646;2022-10-17T03:33:39;18.50;59.40
35299;DHT22;21415;48.054;16.646;2022-10-17T03:36:07;18.50;59.30
35299;DHT22;21415;48.054;16.646;2022-10-17T03:38:34;18.50;59.40
35299;DHT22;21415;48.054;16.646;2022-10-17T03:41:00;18.40;59.30
35299;DHT22;21415;48.054;16.646;2022-10-17T03:43:26;18.40;59.30
35299;DHT22;21415;48.054;16.646;2022-10-17T03:45:52;18.50;59.70
35299;DHT22;21415;48.054;16.646;2022-10-17T03:48:18;18.40;59.40
35299;DHT22;21415;48.054;16.646;2022-10-17T03:50:44;18.50;58.90
35299;DHT22;21415;48.054;16.646;2022-10-17T03:53:09;18.40;58.90
35299;DHT22;21415;48.054;16.646;2022-10-17T03:55:36;18.50;59.00
35299;DHT22;21415;48.054;16.646;2022-10-17T03:58:02;18.40;59.00
35299;DHT22;21415;48.054;16.646;2022-10-17T04:00:28;18.40;59.60
35299;DHT22;21415;48.054;16.646;2022-10-17T04:02:57;18.40;59.10
35299;DHT22;21415;48.054;16.646;2022-10-17T04:05:24;18.40;59.10
35299;DHT22;21415;48.054;16.646;2022-10-17T04:07:50;18.30;59.00
35299;DHT22;21415;48.054;16.646;2022-10-17T04:10:20;18.30;59.10
35299;DHT22;21415;48.054;16.646;2022-10-17T04:12:46;18.30;59.10
35299;DHT22;21415;48.054;16.646;2022-10-17T04:15:12;18.30;59.10
35299;DHT22;21415;48.054;16.646;2022-10-17T04:17:39;18.30;59.10
35299;DHT22;21415;48.054;16.646;2022-10-17T04:20:06;18.30;59.10
35299;DHT22;21415;48.054;16.646;2022-10-17T04:22:32;18.30;59.10
35299;DHT22;21415;48.054;16.646;2022-10-17T04:24:59;18.30;59.20
35299;DHT22;21415;48.054;16.646;2022-10-17T04:27:31;18.30;59.20
35299;DHT22;21415;48.054;16.646;2022-10-17T04:29:57;18.30;59.20
35299;DHT22;21415;48.054;16.646;2022-10-17T04:32:23;18.30;59.10
35299;DHT22;21415;48.054;16.646;2022-10-17T04:35:16;18.30;59.10
35299;DHT22;21415;48.054;16.646;2022-10-17T04:37:46;18.20;59.00
35299;DHT22;21415;48.054;16.646;2022-10-17T04:40:16;18.20;59.00
35299;DHT22;21415;48.054;16.646;2022-10-17T04:42:42;18.20;58.90
35299;DHT22;21415;48.054;16.646;2022-10-17T04:45:10;18.20;58.80
35299;DHT22;21415;48.054;16.646;2022-10-17T04:47:36;18.20;58.70
35299;DHT22;21415;48.054;16.646;2022-10-17T04:50:03;18.10;58.60
35299;DHT22;21415;48.054;16.646;2022-10-17T04:52:34;18.10;58.70
35299;DHT22;21415;48.054;16.646;2022-10-17T04:55:05;18.10;58.70
35299;DHT22;21415;48.054;16.646;2022-10-17T04:57:35;18.00;58.60
35299;DHT22;21415;48.054;16.646;2022-10-17T05:00:12;18.00;59.10
35299;DHT22;21415;48.054;16.646;2022-10-17T05:02:56;18.00;58.60
35299;DHT22;21415;48.054;16.646;2022-10-17T05:05:22;18.00;58.50
35299;DHT22;21415;48.054;16.646;2022-10-17T05:07:51;17.90;58.50
35299;DHT22;21415;48.054;16.646;2022-10-17T05:10:19;17.90;58.50
35299;DHT22;21415;48.054;16.646;2022-10-17T05:12:48;17.90;58.50
35299;DHT22;21415;48.054;16.646;2022-10-17T05:15:16;17.80;58.40
35299;DHT22;21415;48.054;16.646;2022-10-17T05:17:42;17.80;58.40
35299;DHT22;21415;48.054;16.646;2022-10-17T05:20:10;17.80;58.40
35299;DHT22;21415;48.054;16.646;2022-10-17T05:22:36;17.80;58.50
35299;DHT22;21415;48.054;16.646;2022-10-17T05:25:02;17.80;58.50
35299;DHT22;21415;48.054;16.646;2022-10-17T05:27:28;17.70;58.40
35299;DHT22;21415;48.054;16.646;2022-10-17T05:29:54;17.80;58.50
35299;DHT22;21415;48.054;16.646;2022-10-17T05:32:26;17.70;58.50
35299;DHT22;21415;48.054;16.646;2022-10-17T05:34:51;17.70;58.60
35299;DHT22;21415;48.054;16.646;2022-10-17T05:37:19;17.70;58.70
35299;DHT22;21415;48.054;16.646;2022-10-17T05:39:48;17.70;58.70
35299;DHT22;21415;48.054;16.646;2022-10-17T05:42:14;17.70;58.70
35299;DHT22;21415;48.054;16.646;2022-10-17T05:44:40;17.70;58.80
35299;DHT22;21415;48.054;16.646;2022-10-17T05:47:07;17.70;58.80
35299;DHT22;21415;48.054;16.646;2022-10-17T05:49:33;17.70;59.00
35299;DHT22;21415;48.054;16.646;2022-10-17T05:51:59;17.70;58.70
35299;DHT22;21415;48.054;16.646;2022-10-17T05:54:26;17.70;58.80
35299;DHT22;21415;48.054;16.646;2022-10-17T05:56:53;17.70;58.80
35299;DHT22;21415;48.054;16.646;2022-10-17T05:59:24;17.70;58.80
35299;DHT22;21415;48.054;16.646;2022-10-17T06:01:56;17.70;58.90
35299;DHT22;21415;48.054;16.646;2022-10-17T06:04:22;17.70;58.80
35299;DHT22;21415;48.054;16.646;2022-10-17T06:06:47;17.70;58.80
35299;DHT22;21415;48.054;16.646;2022-10-17T06:09:13;17.70;58.80
35299;DHT22;21415;48.054;16.646;2022-10-17T06:11:43;17.80;58.80
35299;DHT22;21415;48.054;16.646;2022-10-17T06:14:09;17.80;58.80
35299;DHT22;21415;48.054;16.646;2022-10-17T06:16:37;17.80;58.70
35299;DHT22;21415;48.054;16.646;2022-10-17T06:19:03;17.80;58.70
35299;DHT22;21415;48.054;16.646;2022-10-17T06:21:29;17.90;58.80
35299;DHT22;21415;48.054;16.646;2022-10-17T06:24:03;17.90;58.70
35299;DHT22;21415;48.054;16.646;2022-10-17T06:26:33;17.90;58.70
35299;DHT22;21415;48.054;16.646;2022-10-17T06:28:59;18.00;58.70
35299;DHT22;21415;48.054;16.646;2022-10-17T06:31:29;18.00;58.80
35299;DHT22;21415;48.054;16.646;2022-10-17T06:33:55;18.00;58.80
35299;DHT22;21415;48.054;16.646;2022-10-17T06:36:21;18.00;58.70
35299;DHT22;21415;48.054;16.646;2022-10-17T06:38:49;18.10;58.90
35299;DHT22;21415;48.054;16.646;2022-10-17T06:41:31;18.10;58.70
35299;DHT22;21415;48.054;16.646;2022-10-17T06:44:03;18.10;58.60
35299;DHT22;21415;48.054;16.646;2022-10-17T06:46:38;18.20;58.70
35299;DHT22;21415;48.054;16.646;2022-10-17T06:49:06;18.20;58.80
35299;DHT22;21415;48.054;16.646;2022-10-17T06:51:41;18.20;58.70
35299;DHT22;21415;48.054;16.646;2022-10-17T06:54:09;18.30;58.80
35299;DHT22;21415;48.054;16.646;2022-10-17T06:56:53;18.30;58.80
35299;DHT22;21415;48.054;16.646;2022-10-17T06:59:43;18.30;58.80
35299;DHT22;21415;48.054;16.646;2022-10-17T07:02:14;18.40;58.90
35299;DHT22;21415;48.054;16.646;2022-10-17T07:04:41;18.40;58.90
35299;DHT22;21415;48.054;16.646;2022-10-17T07:07:07;18.50;59.00
35299;DHT22;21415;48.054;16.646;2022-10-17T07:09:33;18.60;59.20
35299;DHT22;21415;48.054;16.646;2022-10-17T07:11:59;18.60;59.20
35299;DHT22;21415;48.054;16.646;2022-10-17T07:14:25;18.70;59.20
35299;DHT22;21415;48.054;16.646;2022-10-17T07:17:00;18.80;59.20
35299;DHT22;21415;48.054;16.646;2022-10-17T07:19:28;18.80;59.10
35299;DHT22;21415;48.054;16.646;2022-10-17T07:21:54;18.90;59.10
35299;DHT22;21415;48.054;16.646;2022-10-17T07:24:20;18.90;59.00
35299;DHT22;21415;48.054;16.646;2022-10-17T07:26:52;19.10;59.10
35299;DHT22;21415;48.054;16.646;2022-10-17T07:29:18;19.10;58.90
35299;DHT22;21415;48.054;16.646;2022-10-17T07:31:52;19.20;58.90
35299;DHT22;21415;48.054;16.646;2022-10-17T07:34:18;19.20;58.80
35299;DHT22;21415;48.054;16.646;2022-10-17T07:36:44;19.30;58.80
35299;DHT22;21415;48.054;16.646;2022-10-17T07:39:12;19.40;58.80
35299;DHT22;21415;48.054;16.646;2022-10-17T07:41:38;19.40;58.70
35299;DHT22;21415;48.054;16.646;2022-10-17T07:44:05;19.50;58.70
35299;DHT22;21415;48.054;16.646;2022-10-17T07:46:35;19.60;58.70
35299;DHT22;21415;48.054;16.646;2022-10-17T07:49:01;19.70;59.20
35299;DHT22;21415;48.054;16.646;2022-10-17T07:51:27;19.70;58.60
35299;DHT22;21415;48.054;16.646;2022-10-17T07:53:53;19.80;58.60
35299;DHT22;21415;48.054;16.646;2022-10-17T07:56:19;19.80;58.40
35299;DHT22;21415;48.054;16.646;2022-10-17T07:58:49;19.90;58.40
35299;DHT22;21415;48.054;16.646;2022-10-17T08:01:15;19.90;58.30
35299;DHT22;21415;48.054;16.646;2022-10-17T08:03:45;20.00;58.20
35299;DHT22;21415;48.054;16.646;2022-10-17T08:06:11;20.10;58.20
35299;DHT22;21415;48.054;16.646;2022-10-17T08:08:37;20.10;58.20
35299;DHT22;21415;48.054;16.646;2022-10-17T08:11:10;20.20;58.20
35299;DHT22;21415;48.054;16.646;2022-10-17T08:13:37;20.30;58.00
35299;DHT22;21415;48.054;16.646;2022-10-17T08:16:06;20.30;58.10
35299;DHT22;21415;48.054;16.646;2022-10-17T08:18:33;20.30;58.00
35299;DHT22;21415;48.054;16.646;2022-10-17T08:20:59;20.40;58.00
35299;DHT22;21415;48.054;16.646;2022-10-17T08:23:26;20.50;58.00
35299;DHT22;21415;48.054;16.646;2022-10-17T08:25:52;20.50;57.80
35299;DHT22;21415;48.054;16.646;2022-10-17T08:28:17;20.60;57.80
35299;DHT22;21415;48.054;16.646;2022-10-17T08:30:43;20.60;57.80
35299;DHT22;21415;48.054;16.646;2022-10-17T08:33:09;20.70;57.80
35299;DHT22;21415;48.054;16.646;2022-10-17T08:35:35;20.70;57.70
35299;DHT22;21415;48.054;16.646;2022-10-17T08:38:00;20.80;57.70
35299;DHT22;21415;48.054;16.646;2022-10-17T08:40:29;20.80;57.60
35299;DHT22;21415;48.054;16.646;2022-10-17T08:43:25;20.90;57.60
35299;DHT22;21415;48.054;16.646;2022-10-17T08:46:02;20.90;57.30
35299;DHT22;21415;48.054;16.646;2022-10-17T08:48:33;21.00;57.40
35299;DHT22;21415;48.054;16.646;2022-10-17T08:51:16;21.00;57.40
35299;DHT22;21415;48.054;16.646;2022-10-17T08:53:51;21.10;57.20
35299;DHT22;21415;48.054;16.646;2022-10-17T08:56:23;21.10;57.30
35299;DHT22;21415;48.054;16.646;2022-10-17T08:58:49;21.20;57.40
35299;DHT22;21415;48.054;16.646;2022-10-17T09:01:41;21.30;57.50
35299;DHT22;21415;48.054;16.646;2022-10-17T09:07:06;21.40;57.30
35299;DHT22;21415;48.054;16.646;2022-10-17T09:17:59;21.70;56.90
35299;DHT22;21415;48.054;16.646;2022-10-17T09:20:37;21.70;56.60
35299;DHT22;21415;48.054;16.646;2022-10-17T09:23:14;21.80;56.80
35299;DHT22;21415;48.054;16.646;2022-10-17T09:25:43;21.90;56.80
35299;DHT22;21415;48.054;16.646;2022-10-17T09:28:26;22.00;56.80
35299;DHT22;21415;48.054;16.646;2022-10-17T09:33:38;22.10;56.30
35299;DHT22;21415;48.054;16.646;2022-10-17T09:38:48;22.20;56.20
35299;DHT22;21415;48.054;16.646;2022-10-17T09:41:22;22.30;56.30
35299;DHT22;21415;48.054;16.646;2022-10-17T09:43:48;22.40;56.10
35299;DHT22;21415;48.054;16.646;2022-10-17T09:46:25;22.40;56.10
35299;DHT22;21415;48.054;16.646;2022-10-17T09:49:00;22.50;55.60
35299;DHT22;21415;48.054;16.646;2022-10-17T09:51:27;22.50;55.50
35299;DHT22;21415;48.054;16.646;2022-10-17T09:53:54;22.70;55.80
35299;DHT22;21415;48.054;16.646;2022-10-17T09:56:21;22.70;55.80
35299;DHT22;21415;48.054;16.646;2022-10-17T09:58:50;22.80;55.60
35299;DHT22;21415;48.054;16.646;2022-10-17T10:01:24;22.80;55.20
35299;DHT22;21415;48.054;16.646;2022-10-17T10:04:10;22.90;55.00
35299;DHT22;21415;48.054;16.646;2022-10-17T10:06:37;22.90;54.40
35299;DHT22;21415;48.054;16.646;2022-10-17T10:09:04;23.00;55.00
35299;DHT22;21415;48.054;16.646;2022-10-17T10:11:51;23.00;54.80
35299;DHT22;21415;48.054;16.646;2022-10-17T10:14:22;23.10;54.30
35299;DHT22;21415;48.054;16.646;2022-10-17T10:16:50;23.20;54.40
35299;DHT22;21415;48.054;16.646;2022-10-17T10:19:37;23.20;54.50
35299;DHT22;21415;48.054;16.646;2022-10-17T10:22:07;23.30;53.70
35299;DHT22;21415;48.054;16.646;2022-10-17T10:24:39;23.40;54.10
35299;DHT22;21415;48.054;16.646;2022-10-17T10:27:05;23.40;53.90
35299;DHT22;21415;48.054;16.646;2022-10-17T10:29:41;23.50;53.80
35299;DHT22;21415;48.054;16.646;2022-10-17T10:32:28;23.50;53.30
35299;DHT22;21415;48.054;16.646;2022-10-17T10:35:00;23.60;52.70
35299;DHT22;21415;48.054;16.646;2022-10-17T10:37:34;23.60;53.00
35299;DHT22;21415;48.054;16.646;2022-10-17T10:42:41;23.70;52.80
35299;DHT22;21415;48.054;16.646;2022-10-17T10:45:14;23.80;53.00
35299;DHT22;21415;48.054;16.646;2022-10-17T10:50:44;23.90;52.20
35299;DHT22;21415;48.054;16.646;2022-10-17T10:56:15;24.00;51.50
35299;DHT22;21415;48.054;16.646;2022-10-17T10:58:53;24.00;51.40
35299;DHT22;21415;48.054;16.646;2022-10-17T11:04:22;24.20;51.30
35299;DHT22;21415;48.054;16.646;2022-10-17T11:06:54;24.20;50.90
35299;DHT22;21415;48.054;16.646;2022-10-17T11:09:47;24.20;51.30
35299;DHT22;21415;48.054;16.646;2022-10-17T11:12:30;24.30;50.50
35299;DHT22;21415;48.054;16.646;2022-10-17T11:23:37;24.50;50.00
35299;DHT22;21415;48.054;16.646;2022-10-17T11:26:06;24.50;49.80
35299;DHT22;21415;48.054;16.646;2022-10-17T11:28:33;24.50;50.30
35299;DHT22;21415;48.054;16.646;2022-10-17T11:33:45;24.60;50.10
35299;DHT22;21415;48.054;16.646;2022-10-17T11:36:13;24.60;49.70
35299;DHT22;21415;48.054;16.646;2022-10-17T11:41:36;24.70;49.70
35299;DHT22;21415;48.054;16.646;2022-10-17T11:46:56;24.70;48.80
35299;DHT22;21415;48.054;16.646;2022-10-17T11:49:36;24.80;49.50
35299;DHT22;21415;48.054;16.646;2022-10-17T11:52:18;24.80;49.00
35299;DHT22;21415;48.054;16.646;2022-10-17T11:54:53;24.80;48.80
35299;DHT22;21415;48.054;16.646;2022-10-17T11:57:51;24.90;49.20
35299;DHT22;21415;48.054;16.646;2022-10-17T12:03:11;24.90;48.20
35299;DHT22;21415;48.054;16.646;2022-10-17T12:08:40;24.90;48.50
35299;DHT22;21415;48.054;16.646;2022-10-17T12:13:47;25.00;48.20
35299;DHT22;21415;48.054;16.646;2022-10-17T12:21:56;25.00;48.00
35299;DHT22;21415;48.054;16.646;2022-10-17T12:29:47;25.10;47.90
35299;DHT22;21415;48.054;16.646;2022-10-17T12:32:13;25.20;48.40
35299;DHT22;21415;48.054;16.646;2022-10-17T12:34:50;25.20;48.30
35299;DHT22;21415;48.054;16.646;2022-10-17T12:42:59;25.20;47.20
35299;DHT22;21415;48.054;16.646;2022-10-17T12:45:54;25.30;47.90
35299;DHT22;21415;48.054;16.646;2022-10-17T12:54:08;25.40;48.10
35299;DHT22;21415;48.054;16.646;2022-10-17T12:56:44;25.40;46.80
35299;DHT22;21415;48.054;16.646;2022-10-17T13:01:44;25.40;47.20
35299;DHT22;21415;48.054;16.646;2022-10-17T13:04:10;25.40;46.80
35299;DHT22;21415;48.054;16.646;2022-10-17T13:06:46;25.40;47.10
35299;DHT22;21415;48.054;16.646;2022-10-17T13:09:29;25.50;47.40
35299;DHT22;21415;48.054;16.646;2022-10-17T13:11:57;25.50;46.40
35299;DHT22;21415;48.054;16.646;2022-10-17T13:14:24;25.50;46.80
35299;DHT22;21415;48.054;16.646;2022-10-17T13:16:55;25.50;46.60
35299;DHT22;21415;48.054;16.646;2022-10-17T13:19:25;25.50;46.40
35299;DHT22;21415;48.054;16.646;2022-10-17T13:21:58;25.50;45.90
35299;DHT22;21415;48.054;16.646;2022-10-17T13:24:35;25.50;45.90
35299;DHT22;21415;48.054;16.646;2022-10-17T13:27:02;25.50;45.10
35299;DHT22;21415;48.054;16.646;2022-10-17T13:29:28;25.50;45.60
35299;DHT22;21415;48.054;16.646;2022-10-17T13:32:01;25.50;45.40
35299;DHT22;21415;48.054;16.646;2022-10-17T13:34:29;25.50;44.70
35299;DHT22;21415;48.054;16.646;2022-10-17T13:37:06;25.50;45.10
35299;DHT22;21415;48.054;16.646;2022-10-17T13:39:44;25.50;44.40
35299;DHT22;21415;48.054;16.646;2022-10-17T13:42:26;25.60;44.00
35299;DHT22;21415;48.054;16.646;2022-10-17T13:44:53;25.50;43.90
35299;DHT22;21415;48.054;16.646;2022-10-17T13:47:26;25.60;44.60
35299;DHT22;21415;48.054;16.646;2022-10-17T13:49:53;25.60;43.60
35299;DHT22;21415;48.054;16.646;2022-10-17T13:52:22;25.60;44.20
35299;DHT22;21415;48.054;16.646;2022-10-17T13:54:50;25.60;44.00
35299;DHT22;21415;48.054;16.646;2022-10-17T13:57:21;25.60;44.10
35299;DHT22;21415;48.054;16.646;2022-10-17T13:59:53;25.60;43.90
35299;DHT22;21415;48.054;16.646;2022-10-17T14:02:23;25.60;43.40
35299;DHT22;21415;48.054;16.646;2022-10-17T14:05:00;25.60;43.90
35299;DHT22;21415;48.054;16.646;2022-10-17T14:07:33;25.60;43.00
35299;DHT22;21415;48.054;16.646;2022-10-17T14:09:59;25.60;43.20
35299;DHT22;21415;48.054;16.646;2022-10-17T14:12:26;25.60;43.50
35299;DHT22;21415;48.054;16.646;2022-10-17T14:14:52;25.60;43.50
35299;DHT22;21415;48.054;16.646;2022-10-17T14:17:26;25.60;43.20
35299;DHT22;21415;48.054;16.646;2022-10-17T14:19:58;25.60;42.60
35299;DHT22;21415;48.054;16.646;2022-10-17T14:22:32;25.60;43.00
35299;DHT22;21415;48.054;16.646;2022-10-17T14:24:58;25.60;43.40
35299;DHT22;21415;48.054;16.646;2022-10-17T14:27:36;25.60;43.10
35299;DHT22;21415;48.054;16.646;2022-10-17T14:32:58;25.60;42.30
35299;DHT22;21415;48.054;16.646;2022-10-17T14:35:25;25.60;42.60
35299;DHT22;21415;48.054;16.646;2022-10-17T14:37:52;25.60;43.00
35299;DHT22;21415;48.054;16.646;2022-10-17T14:40:26;25.60;43.00
35299;DHT22;21415;48.054;16.646;2022-10-17T14:42:54;25.60;42.60
35299;DHT22;21415;48.054;16.646;2022-10-17T14:45:27;25.60;42.80
35299;DHT22;21415;48.054;16.646;2022-10-17T14:48:29;25.60;42.10
35299;DHT22;21415;48.054;16.646;2022-10-17T14:53:36;25.50;42.10
35299;DHT22;21415;48.054;16.646;2022-10-17T14:56:17;25.50;42.70
35299;DHT22;21415;48.054;16.646;2022-10-17T14:58:45;25.50;42.50
35299;DHT22;21415;48.054;16.646;2022-10-17T15:01:10;25.50;42.60
35299;DHT22;21415;48.054;16.646;2022-10-17T15:03:36;25.50;42.60
35299;DHT22;21415;48.054;16.646;2022-10-17T15:06:19;25.50;42.60
35299;DHT22;21415;48.054;16.646;2022-10-17T15:08:45;25.40;42.00
35299;DHT22;21415;48.054;16.646;2022-10-17T15:11:11;25.40;42.40
35299;DHT22;21415;48.054;16.646;2022-10-17T15:13:37;25.40;42.40
35299;DHT22;21415;48.054;16.646;2022-10-17T15:16:20;25.40;42.40
35299;DHT22;21415;48.054;16.646;2022-10-17T15:18:46;25.30;41.70
35299;DHT22;21415;48.054;16.646;2022-10-17T15:21:14;25.30;42.20
35299;DHT22;21415;48.054;16.646;2022-10-17T15:23:40;25.30;42.20
35299;DHT22;21415;48.054;16.646;2022-10-17T15:26:13;25.30;42.20
35299;DHT22;21415;48.054;16.646;2022-10-17T15:28:40;25.30;42.70
35299;DHT22;21415;48.054;16.646;2022-10-17T15:31:11;25.20;42.50
35299;DHT22;21415;48.054;16.646;2022-10-17T15:33:37;25.20;42.20
35299;DHT22;21415;48.054;16.646;2022-10-17T15:36:03;25.10;42.30
35299;DHT22;21415;48.054;16.646;2022-10-17T15:38:29;25.10;42.30
35299;DHT22;21415;48.054;16.646;2022-10-17T15:40:55;25.00;42.60
35299;DHT22;21415;48.054;16.646;2022-10-17T15:43:21;25.00;42.40
35299;DHT22;21415;48.054;16.646;2022-10-17T15:45:47;25.00;42.30
35299;DHT22;21415;48.054;16.646;2022-10-17T15:48:29;24.90;42.20
35299;DHT22;21415;48.054;16.646;2022-10-17T15:50:55;24.80;41.60
35299;DHT22;21415;48.054;16.646;2022-10-17T15:53:21;24.80;42.00
35299;DHT22;21415;48.054;16.646;2022-10-17T15:55:48;24.70;42.00
35299;DHT22;21415;48.054;16.646;2022-10-17T15:58:17;24.70;41.90
35299;DHT22;21415;48.054;16.646;2022-10-17T16:00:43;24.60;41.80
35299;DHT22;21415;48.054;16.646;2022-10-17T16:03:09;24.60;41.70
35299;DHT22;21415;48.054;16.646;2022-10-17T16:05:35;24.60;41.70
35299;DHT22;21415;48.054;16.646;2022-10-17T16:08:01;24.40;41.70
35299;DHT22;21415;48.054;16.646;2022-10-17T16:10:27;24.40;41.70
35299;DHT22;21415;48.054;16.646;2022-10-17T16:12:53;24.40;41.70
35299;DHT22;21415;48.054;16.646;2022-10-17T16:15:24;24.30;41.70
35299;DHT22;21415;48.054;16.646;2022-10-17T16:17:51;24.30;41.30
35299;DHT22;21415;48.054;16.646;2022-10-17T16:20:18;24.20;41.50
35299;DHT22;21415;48.054;16.646;2022-10-17T16:22:44;24.20;41.50
35299;DHT22;21415;48.054;16.646;2022-10-17T16:25:20;24.10;41.60
35299;DHT22;21415;48.054;16.646;2022-10-17T16:27:48;24.10;42.00
35299;DHT22;21415;48.054;16.646;2022-10-17T16:30:15;24.10;41.70
35299;DHT22;21415;48.054;16.646;2022-10-17T16:32:41;24.00;41.50
35299;DHT22;21415;48.054;16.646;2022-10-17T16:35:07;24.00;41.50
35299;DHT22;21415;48.054;16.646;2022-10-17T16:37:33;23.90;41.60
35299;DHT22;21415;48.054;16.646;2022-10-17T16:40:00;23.80;41.50
35299;DHT22;21415;48.054;16.646;2022-10-17T16:42:26;23.80;41.40
35299;DHT22;21415;48.054;16.646;2022-10-17T16:44:52;23.80;41.40
35299;DHT22;21415;48.054;16.646;2022-10-17T16:47:18;23.70;41.50
35299;DHT22;21415;48.054;16.646;2022-10-17T16:49:44;23.70;41.50
35299;DHT22;21415;48.054;16.646;2022-10-17T16:52:10;23.60;41.50
35299;DHT22;21415;48.054;16.646;2022-10-17T16:54:36;23.60;41.90
35299;DHT22;21415;48.054;16.646;2022-10-17T16:57:02;23.60;41.70
35299;DHT22;21415;48.054;16.646;2022-10-17T16:59:28;23.60;41.70
35299;DHT22;21415;48.054;16.646;2022-10-17T17:01:54;23.60;41.80
35299;DHT22;21415;48.054;16.646;2022-10-17T17:04:20;23.50;41.80
35299;DHT22;21415;48.054;16.646;2022-10-17T17:06:46;23.50;41.90
35299;DHT22;21415;48.054;16.646;2022-10-17T17:09:12;23.40;41.90
35299;DHT22;21415;48.054;16.646;2022-10-17T17:11:38;23.40;42.00
35299;DHT22;21415;48.054;16.646;2022-10-17T17:14:04;23.40;42.00
35299;DHT22;21415;48.054;16.646;2022-10-17T17:16:32;23.30;42.00
35299;DHT22;21415;48.054;16.646;2022-10-17T17:19:05;23.30;42.10
35299;DHT22;21415;48.054;16.646;2022-10-17T17:21:32;23.30;42.10